sensor_id;sensor_type;location;lat;lon;timestamp;temperature;humidity
51029;DHT22;37054;52.054;8.600;2023-02-18T00:02:08;12.90;63.30
51029;DHT22;37054;52.054;8.600;2023-02-18T00:04:33;12.90;63.20
51029;DHT22;37054;52.054;8.600;2023-02-18T00:06:59;12.90;62.90
51029;DHT22;37054;52.054;8.600;2023-02-18T00:09:25;12.80;62.50
51029;DHT22;37054;52.054;8.600;2023-02-18T00:11:50;12.70;62.30
51029;DHT22;37054;52.054;8.600;2023-02-18T00:14:16;12.70;62.20
51029;DHT22;37054;52.054;8.600;2023-02-18T00:16:42;12.70;62.40
51029;DHT22;37054;52.054;8.600;2023-02-18T00:19:13;12.70;62.80
51029;DHT22;37054;52.054;8.600;2023-02-18T00:21:39;12.70;63.10
51029;DHT22;37054;52.054;8.600;2023-02-18T00:24:05;12.70;63.10
51029;DHT22;37054;52.054;8.600;2023-02-18T00:26:30;12.70;63.20
51029;DHT22;37054;52.054;8.600;2023-02-18T00:28:56;12.80;63.10
51029;DHT22;37054;52.054;8.600;2023-02-18T00:31:24;12.70;63.10
51029;DHT22;37054;52.054;8.600;2023-02-18T00:33:50;12.70;63.30
51029;DHT22;37054;52.054;8.600;2023-02-18T00:36:16;12.80;63.30
51029;DHT22;37054;52.054;8.600;2023-02-18T00:38:43;12.80;63.30
51029;DHT22;37054;52.054;8.600;2023-02-18T00:41:09;12.80;63.20
51029;DHT22;37054;52.054;8.600;2023-02-18T00:43:34;12.80;63.00
51029;DHT22;37054;52.054;8.600;2023-02-18T00:46:00;12.80;63.10
51029;DHT22;37054;52.054;8.600;2023-02-18T00:48:26;12.80;63.30
51029;DHT22;37054;52.054;8.600;2023-02-18T00:50:51;12.80;63.60
51029;DHT22;37054;52.054;8.600;2023-02-18T00:53:17;13.00;63.70
51029;DHT22;37054;52.054;8.600;2023-02-18T00:55:43;13.00;63.80
51029;DHT22;37054;52.054;8.600;2023-02-18T00:58:09;13.20;63.90
51029;DHT22;37054;52.054;8.600;2023-02-18T01:00:35;13.20;64.00
51029;DHT22;37054;52.054;8.600;2023-02-18T01:03:01;13.30;64.20
51029;DHT22;37054;52.054;8.600;2023-02-18T01:05:27;13.40;64.20
51029;DHT22;37054;52.054;8.600;2023-02-18T01:07:53;13.50;64.20
51029;DHT22;37054;52.054;8.600;2023-02-18T01:10:18;13.70;64.30
51029;DHT22;37054;52.054;8.600;2023-02-18T01:12:45;13.80;64.20
51029;DHT22;37054;52.054;8.600;2023-02-18T01:15:11;13.90;64.20
51029;DHT22;37054;52.054;8.600;2023-02-18T01:17:38;14.00;64.20
51029;DHT22;37054;52.054;8.600;2023-02-18T01:20:04;14.10;64.20
51029;DHT22;37054;52.054;8.600;2023-02-18T01:22:30;14.20;64.20
51029;DHT22;37054;52.054;8.600;2023-02-18T01:24:55;14.30;64.20
51029;DHT22;37054;52.054;8.600;2023-02-18T01:27:21;14.30;64.20
51029;DHT22;37054;52.054;8.600;2023-02-18T01:29:46;14.40;64.10
51029;DHT22;37054;52.054;8.600;2023-02-18T01:32:12;14.40;64.00
51029;DHT22;37054;52.054;8.600;2023-02-18T01:34:38;14.50;64.00
51029;DHT22;37054;52.054;8.600;2023-02-18T01:37:03;14.50;64.00
51029;DHT22;37054;52.054;8.600;2023-02-18T01:39:29;14.60;63.90
51029;DHT22;37054;52.054;8.600;2023-02-18T01:41:54;14.60;64.10
51029;DHT22;37054;52.054;8.600;2023-02-18T01:44:21;14.70;64.00
51029;DHT22;37054;52.054;8.600;2023-02-18T01:46:47;14.70;64.10
51029;DHT22;37054;52.054;8.600;2023-02-18T01:49:23;14.80;64.00
51029;DHT22;37054;52.054;8.600;2023-02-18T01:51:51;14.80;64.00
51029;DHT22;37054;52.054;8.600;2023-02-18T01:54:20;14.90;64.00
51029;DHT22;37054;52.054;8.600;2023-02-18T01:56:54;14.90;64.00
51029;DHT22;37054;52.054;8.600;2023-02-18T01:59:28;15.00;63.90
51029;DHT22;37054;52.054;8.600;2023-02-18T02:01:55;15.00;63.90
51029;DHT22;37054;52.054;8.600;2023-02-18T02:04:21;15.00;63.90
51029;DHT22;37054;52.054;8.600;2023-02-18T02:06:47;15.10;63.80
51029;DHT22;37054;52.054;8.600;2023-02-18T02:09:13;15.10;63.90
51029;DHT22;37054;52.054;8.600;2023-02-18T02:16:56;15.20;63.90
51029;DHT22;37054;52.054;8.600;2023-02-18T02:24:38;15.20;63.80
51029;DHT22;37054;52.054;8.600;2023-02-18T02:27:12;15.20;63.90
51029;DHT22;37054;52.054;8.600;2023-02-18T02:29:50;15.30;63.90
51029;DHT22;37054;52.054;8.600;2023-02-18T02:35:08;15.30;63.80
51029;DHT22;37054;52.054;8.600;2023-02-18T02:40:15;15.30;63.90
51029;DHT22;37054;52.054;8.600;2023-02-18T02:50:37;15.20;64.00
51029;DHT22;37054;52.054;8.600;2023-02-18T02:53:05;15.20;64.00
51029;DHT22;37054;52.054;8.600;2023-02-18T02:55:35;15.30;64.00
51029;DHT22;37054;52.054;8.600;2023-02-18T02:58:01;15.30;63.90
51029;DHT22;37054;52.054;8.600;2023-02-18T03:00:39;15.30;64.00
51029;DHT22;37054;52.054;8.600;2023-02-18T03:11:13;15.40;63.90
51029;DHT22;37054;52.054;8.600;2023-02-18T03:19:02;15.60;64.00
51029;DHT22;37054;52.054;8.600;2023-02-18T03:21:32;15.70;64.10
51029;DHT22;37054;52.054;8.600;2023-02-18T03:26:27;15.80;63.90
51029;DHT22;37054;52.054;8.600;2023-02-18T03:28:54;15.80;64.00
51029;DHT22;37054;52.054;8.600;2023-02-18T03:31:22;15.80;64.00
51029;DHT22;37054;52.054;8.600;2023-02-18T03:33:51;15.80;64.00
51029;DHT22;37054;52.054;8.600;2023-02-18T03:36:18;15.80;64.00
51029;DHT22;37054;52.054;8.600;2023-02-18T03:38:50;15.80;64.20
51029;DHT22;37054;52.054;8.600;2023-02-18T03:41:16;15.80;64.20
51029;DHT22;37054;52.054;8.600;2023-02-18T03:43:48;15.80;64.20
51029;DHT22;37054;52.054;8.600;2023-02-18T03:46:14;15.70;64.30
51029;DHT22;37054;52.054;8.600;2023-02-18T03:48:40;15.70;64.30
51029;DHT22;37054;52.054;8.600;2023-02-18T03:51:05;15.70;64.50
51029;DHT22;37054;52.054;8.600;2023-02-18T03:53:36;15.70;64.50
51029;DHT22;37054;52.054;8.600;2023-02-18T03:56:02;15.70;64.60
51029;DHT22;37054;52.054;8.600;2023-02-18T03:58:28;15.70;64.70
51029;DHT22;37054;52.054;8.600;2023-02-18T04:00:53;15.70;64.90
51029;DHT22;37054;52.054;8.600;2023-02-18T04:03:19;15.70;65.00
51029;DHT22;37054;52.054;8.600;2023-02-18T04:05:44;15.70;65.00
51029;DHT22;37054;52.054;8.600;2023-02-18T04:08:12;15.70;65.00
51029;DHT22;37054;52.054;8.600;2023-02-18T04:10:37;15.70;65.10
51029;DHT22;37054;52.054;8.600;2023-02-18T04:13:03;15.70;65.20
51029;DHT22;37054;52.054;8.600;2023-02-18T04:15:29;15.80;65.20
51029;DHT22;37054;52.054;8.600;2023-02-18T04:17:55;15.80;65.40
51029;DHT22;37054;52.054;8.600;2023-02-18T04:20:20;15.80;65.30
51029;DHT22;37054;52.054;8.600;2023-02-18T04:22:47;15.80;65.40
51029;DHT22;37054;52.054;8.600;2023-02-18T04:25:12;15.80;65.30
51029;DHT22;37054;52.054;8.600;2023-02-18T04:27:38;15.80;65.30
51029;DHT22;37054;52.054;8.600;2023-02-18T04:30:04;15.80;65.30
51029;DHT22;37054;52.054;8.600;2023-02-18T04:32:29;15.80;65.40
51029;DHT22;37054;52.054;8.600;2023-02-18T04:34:55;15.90;65.40
51029;DHT22;37054;52.054;8.600;2023-02-18T04:37:21;15.80;65.40
51029;DHT22;37054;52.054;8.600;2023-02-18T04:39:47;15.90;65.50
51029;DHT22;37054;52.054;8.600;2023-02-18T04:42:12;15.90;65.50
51029;DHT22;37054;52.054;8.600;2023-02-18T04:44:38;16.00;65.50
51029;DHT22;37054;52.054;8.600;2023-02-18T04:47:04;16.00;65.50
51029;DHT22;37054;52.054;8.600;2023-02-18T04:49:30;16.00;65.50
51029;DHT22;37054;52.054;8.600;2023-02-18T04:51:58;15.90;65.50
51029;DHT22;37054;52.054;8.600;2023-02-18T04:54:23;16.00;65.70
51029;DHT22;37054;52.054;8.600;2023-02-18T04:56:49;16.00;65.70
51029;DHT22;37054;52.054;8.600;2023-02-18T04:59:15;16.00;65.60
51029;DHT22;37054;52.054;8.600;2023-02-18T05:01:41;16.00;65.60
51029;DHT22;37054;52.054;8.600;2023-02-18T05:04:06;16.00;65.60
51029;DHT22;37054;52.054;8.600;2023-02-18T05:06:32;16.00;65.80
51029;DHT22;37054;52.054;8.600;2023-02-18T05:08:57;16.00;65.70
51029;DHT22;37054;52.054;8.600;2023-02-18T05:11:23;16.00;65.80
51029;DHT22;37054;52.054;8.600;2023-02-18T05:13:49;16.10;65.90
51029;DHT22;37054;52.054;8.600;2023-02-18T05:16:14;16.10;65.80
51029;DHT22;37054;52.054;8.600;2023-02-18T05:18:40;16.10;65.90
51029;DHT22;37054;52.054;8.600;2023-02-18T05:21:05;16.00;66.00
51029;DHT22;37054;52.054;8.600;2023-02-18T05:23:32;16.10;65.90
51029;DHT22;37054;52.054;8.600;2023-02-18T05:25:57;16.10;66.00
51029;DHT22;37054;52.054;8.600;2023-02-18T05:28:23;16.10;66.00
51029;DHT22;37054;52.054;8.600;2023-02-18T05:30:48;16.10;66.00
51029;DHT22;37054;52.054;8.600;2023-02-18T05:33:14;16.10;65.90
51029;DHT22;37054;52.054;8.600;2023-02-18T05:35:39;16.10;65.90
51029;DHT22;37054;52.054;8.600;2023-02-18T05:38:05;16.10;66.00
51029;DHT22;37054;52.054;8.600;2023-02-18T05:40:31;16.10;66.10
51029;DHT22;37054;52.054;8.600;2023-02-18T05:42:56;16.20;66.00
51029;DHT22;37054;52.054;8.600;2023-02-18T05:45:22;16.10;66.10
51029;DHT22;37054;52.054;8.600;2023-02-18T05:47:48;16.10;66.00
51029;DHT22;37054;52.054;8.600;2023-02-18T05:50:13;16.10;66.00
51029;DHT22;37054;52.054;8.600;2023-02-18T05:52:39;16.20;65.90
51029;DHT22;37054;52.054;8.600;2023-02-18T05:55:05;16.20;66.10
51029;DHT22;37054;52.054;8.600;2023-02-18T05:57:32;16.20;66.00
51029;DHT22;37054;52.054;8.600;2023-02-18T05:59:57;16.20;65.90
51029;DHT22;37054;52.054;8.600;2023-02-18T06:02:23;16.20;66.00
51029;DHT22;37054;52.054;8.600;2023-02-18T06:04:48;16.20;66.00
51029;DHT22;37054;52.054;8.600;2023-02-18T06:07:14;16.20;66.00
51029;DHT22;37054;52.054;8.600;2023-02-18T06:09:39;16.20;66.00
51029;DHT22;37054;52.054;8.600;2023-02-18T06:12:05;16.20;66.10
51029;DHT22;37054;52.054;8.600;2023-02-18T06:14:31;16.20;66.00
51029;DHT22;37054;52.054;8.600;2023-02-18T06:16:56;16.20;65.90
51029;DHT22;37054;52.054;8.600;2023-02-18T06:19:22;16.20;66.00
51029;DHT22;37054;52.054;8.600;2023-02-18T06:21:48;16.20;66.00
51029;DHT22;37054;52.054;8.600;2023-02-18T06:24:14;16.20;66.00
51029;DHT22;37054;52.054;8.600;2023-02-18T06:26:39;16.20;66.10
51029;DHT22;37054;52.054;8.600;2023-02-18T06:29:05;16.20;66.10
51029;DHT22;37054;52.054;8.600;2023-02-18T06:31:31;16.20;66.10
51029;DHT22;37054;52.054;8.600;2023-02-18T06:33:56;16.20;66.00
51029;DHT22;37054;52.054;8.600;2023-02-18T06:36:22;16.20;66.10
51029;DHT22;37054;52.054;8.600;2023-02-18T06:38:47;16.20;66.10
51029;DHT22;37054;52.054;8.600;2023-02-18T06:41:13;16.20;66.00
51029;DHT22;37054;52.054;8.600;2023-02-18T06:43:38;16.20;66.10
51029;DHT22;37054;52.054;8.600;2023-02-18T06:46:04;16.20;66.00
51029;DHT22;37054;52.054;8.600;2023-02-18T06:48:30;16.20;66.10
51029;DHT22;37054;52.054;8.600;2023-02-18T06:50:55;16.20;66.10
51029;DHT22;37054;52.054;8.600;2023-02-18T06:53:21;16.20;66.10
51029;DHT22;37054;52.054;8.600;2023-02-18T06:55:46;16.20;66.20
51029;DHT22;37054;52.054;8.600;2023-02-18T06:58:12;16.10;66.40
51029;DHT22;37054;52.054;8.600;2023-02-18T07:00:38;16.20;66.20
51029;DHT22;37054;52.054;8.600;2023-02-18T07:03:04;16.20;66.10
51029;DHT22;37054;52.054;8.600;2023-02-18T07:05:29;16.20;66.00
51029;DHT22;37054;52.054;8.600;2023-02-18T07:07:55;16.20;66.20
51029;DHT22;37054;52.054;8.600;2023-02-18T07:10:21;16.20;66.30
51029;DHT22;37054;52.054;8.600;2023-02-18T07:12:46;16.20;66.30
51029;DHT22;37054;52.054;8.600;2023-02-18T07:15:17;16.20;66.30
51029;DHT22;37054;52.054;8.600;2023-02-18T07:17:51;16.30;66.20
51029;DHT22;37054;52.054;8.600;2023-02-18T07:20:17;16.30;66.20
51029;DHT22;37054;52.054;8.600;2023-02-18T07:22:43;16.30;66.10
51029;DHT22;37054;52.054;8.600;2023-02-18T07:25:08;16.20;66.20
51029;DHT22;37054;52.054;8.600;2023-02-18T07:27:34;16.30;66.20
51029;DHT22;37054;52.054;8.600;2023-02-18T07:29:59;16.30;66.10
51029;DHT22;37054;52.054;8.600;2023-02-18T07:32:25;16.30;66.10
51029;DHT22;37054;52.054;8.600;2023-02-18T07:34:51;16.30;66.00
51029;DHT22;37054;52.054;8.600;2023-02-18T07:37:18;16.40;66.00
51029;DHT22;37054;52.054;8.600;2023-02-18T07:39:43;16.30;66.00
51029;DHT22;37054;52.054;8.600;2023-02-18T07:42:09;16.30;66.10
51029;DHT22;37054;52.054;8.600;2023-02-18T07:44:35;16.30;66.10
51029;DHT22;37054;52.054;8.600;2023-02-18T07:47:01;16.30;66.20
51029;DHT22;37054;52.054;8.600;2023-02-18T07:49:27;16.30;66.30
51029;DHT22;37054;52.054;8.600;2023-02-18T07:51:53;16.40;66.20
51029;DHT22;37054;52.054;8.600;2023-02-18T07:54:19;16.30;66.10
51029;DHT22;37054;52.054;8.600;2023-02-18T07:56:44;16.30;66.20
51029;DHT22;37054;52.054;8.600;2023-02-18T07:59:11;16.30;66.30
51029;DHT22;37054;52.054;8.600;2023-02-18T08:01:37;16.40;66.30
51029;DHT22;37054;52.054;8.600;2023-02-18T08:04:02;16.40;66.20
51029;DHT22;37054;52.054;8.600;2023-02-18T08:06:35;16.40;66.30
51029;DHT22;37054;52.054;8.600;2023-02-18T08:09:01;16.40;66.20
51029;DHT22;37054;52.054;8.600;2023-02-18T08:11:27;16.40;66.30
51029;DHT22;37054;52.054;8.600;2023-02-18T08:13:53;16.40;66.30
51029;DHT22;37054;52.054;8.600;2023-02-18T08:16:19;16.40;66.40
51029;DHT22;37054;52.054;8.600;2023-02-18T08:18:45;16.40;66.30
51029;DHT22;37054;52.054;8.600;2023-02-18T08:21:14;16.40;66.20
51029;DHT22;37054;52.054;8.600;2023-02-18T08:23:41;16.40;66.30
51029;DHT22;37054;52.054;8.600;2023-02-18T08:26:06;16.30;66.20
51029;DHT22;37054;52.054;8.600;2023-02-18T08:28:32;16.30;66.20
51029;DHT22;37054;52.054;8.600;2023-02-18T08:30:58;16.40;66.20
51029;DHT22;37054;52.054;8.600;2023-02-18T08:33:24;16.40;66.30
51029;DHT22;37054;52.054;8.600;2023-02-18T08:35:50;16.40;66.20
51029;DHT22;37054;52.054;8.600;2023-02-18T08:38:16;16.40;66.20
51029;DHT22;37054;52.054;8.600;2023-02-18T08:40:42;16.40;66.30
51029;DHT22;37054;52.054;8.600;2023-02-18T08:43:07;16.30;66.20
51029;DHT22;37054;52.054;8.600;2023-02-18T08:45:33;16.40;66.20
51029;DHT22;37054;52.054;8.600;2023-02-18T08:47:59;16.30;66.30
51029;DHT22;37054;52.054;8.600;2023-02-18T08:50:24;16.40;66.20
51029;DHT22;37054;52.054;8.600;2023-02-18T08:52:51;16.40;66.20
51029;DHT22;37054;52.054;8.600;2023-02-18T08:55:17;16.40;66.30
51029;DHT22;37054;52.054;8.600;2023-02-18T08:57:45;16.50;66.10
51029;DHT22;37054;52.054;8.600;2023-02-18T09:00:11;16.40;66.10
51029;DHT22;37054;52.054;8.600;2023-02-18T09:02:37;16.40;66.10
51029;DHT22;37054;52.054;8.600;2023-02-18T09:05:03;16.40;66.20
51029;DHT22;37054;52.054;8.600;2023-02-18T09:07:35;16.50;66.30
51029;DHT22;37054;52.054;8.600;2023-02-18T09:10:01;16.50;66.30
51029;DHT22;37054;52.054;8.600;2023-02-18T09:12:27;16.50;66.20
51029;DHT22;37054;52.054;8.600;2023-02-18T09:14:53;16.50;66.30
51029;DHT22;37054;52.054;8.600;2023-02-18T09:17:19;16.50;66.20
51029;DHT22;37054;52.054;8.600;2023-02-18T09:19:48;16.50;66.20
51029;DHT22;37054;52.054;8.600;2023-02-18T09:22:16;16.50;66.30
51029;DHT22;37054;52.054;8.600;2023-02-18T09:24:41;16.50;66.20
51029;DHT22;37054;52.054;8.600;2023-02-18T09:27:07;16.50;66.30
51029;DHT22;37054;52.054;8.600;2023-02-18T09:29:35;16.50;66.30
51029;DHT22;37054;52.054;8.600;2023-02-18T09:32:02;16.50;66.30
51029;DHT22;37054;52.054;8.600;2023-02-18T09:34:28;16.60;66.40
51029;DHT22;37054;52.054;8.600;2023-02-18T09:36:53;16.60;66.30
51029;DHT22;37054;52.054;8.600;2023-02-18T09:39:19;16.50;66.30
51029;DHT22;37054;52.054;8.600;2023-02-18T09:44:22;16.60;66.10
51029;DHT22;37054;52.054;8.600;2023-02-18T09:47:10;16.60;66.10
51029;DHT22;37054;52.054;8.600;2023-02-18T09:49:34;16.50;66.10
51029;DHT22;37054;52.054;8.600;2023-02-18T09:52:05;16.60;66.10
51029;DHT22;37054;52.054;8.600;2023-02-18T09:54:31;16.60;66.00
51029;DHT22;37054;52.054;8.600;2023-02-18T09:56:57;16.60;66.00
51029;DHT22;37054;52.054;8.600;2023-02-18T09:59:23;16.60;66.00
51029;DHT22;37054;52.054;8.600;2023-02-18T10:01:50;16.50;66.00
51029;DHT22;37054;52.054;8.600;2023-02-18T10:06:54;16.40;66.10
51029;DHT22;37054;52.054;8.600;2023-02-18T10:09:33;16.50;66.20
51029;DHT22;37054;52.054;8.600;2023-02-18T10:12:03;16.50;66.20
51029;DHT22;37054;52.054;8.600;2023-02-18T10:14:29;16.50;66.30
51029;DHT22;37054;52.054;8.600;2023-02-18T10:16:58;16.60;66.20
51029;DHT22;37054;52.054;8.600;2023-02-18T10:19:28;16.50;65.90
51029;DHT22;37054;52.054;8.600;2023-02-18T10:21:56;16.50;65.90
51029;DHT22;37054;52.054;8.600;2023-02-18T10:26:50;16.50;65.90
51029;DHT22;37054;52.054;8.600;2023-02-18T10:29:16;16.50;66.00
51029;DHT22;37054;52.054;8.600;2023-02-18T10:31:44;16.50;66.00
51029;DHT22;37054;52.054;8.600;2023-02-18T10:36:46;16.50;65.90
51029;DHT22;37054;52.054;8.600;2023-02-18T10:39:18;16.40;65.90
51029;DHT22;37054;52.054;8.600;2023-02-18T10:47:10;16.30;65.80
51029;DHT22;37054;52.054;8.600;2023-02-18T10:52:17;16.30;65.90
51029;DHT22;37054;52.054;8.600;2023-02-18T10:55:03;16.30;66.00
51029;DHT22;37054;52.054;8.600;2023-02-18T10:57:30;16.30;66.10
51029;DHT22;37054;52.054;8.600;2023-02-18T11:00:03;16.30;66.10
51029;DHT22;37054;52.054;8.600;2023-02-18T11:02:37;16.30;66.00
51029;DHT22;37054;52.054;8.600;2023-02-18T11:05:17;16.30;66.10
51029;DHT22;37054;52.054;8.600;2023-02-18T11:07:45;16.30;66.10
51029;DHT22;37054;52.054;8.600;2023-02-18T11:10:14;16.30;65.70
51029;DHT22;37054;52.054;8.600;2023-02-18T11:17:38;16.30;66.20
51029;DHT22;37054;52.054;8.600;2023-02-18T11:20:24;16.30;66.00
51029;DHT22;37054;52.054;8.600;2023-02-18T11:22:49;16.40;66.00
51029;DHT22;37054;52.054;8.600;2023-02-18T11:25:22;16.30;66.00
51029;DHT22;37054;52.054;8.600;2023-02-18T11:27:49;16.30;66.00
51029;DHT22;37054;52.054;8.600;2023-02-18T11:30:20;16.30;66.00
51029;DHT22;37054;52.054;8.600;2023-02-18T11:32:51;16.30;65.80
51029;DHT22;37054;52.054;8.600;2023-02-18T11:35:19;16.40;66.00
51029;DHT22;37054;52.054;8.600;2023-02-18T11:37:44;16.40;66.00
51029;DHT22;37054;52.054;8.600;2023-02-18T11:40:24;16.40;66.00
51029;DHT22;37054;52.054;8.600;2023-02-18T11:42:50;16.50;65.90
51029;DHT22;37054;52.054;8.600;2023-02-18T11:45:27;16.50;65.90
51029;DHT22;37054;52.054;8.600;2023-02-18T11:48:30;16.50;65.90
51029;DHT22;37054;52.054;8.600;2023-02-18T11:50:44;16.50;65.90
51029;DHT22;37054;52.054;8.600;2023-02-18T11:55:56;16.40;65.70
51029;DHT22;37054;52.054;8.600;2023-02-18T11:58:23;16.40;65.90
51029;DHT22;37054;52.054;8.600;2023-02-18T12:00:49;16.30;65.70
51029;DHT22;37054;52.054;8.600;2023-02-18T12:03:23;16.30;65.60
51029;DHT22;37054;52.054;8.600;2023-02-18T12:05:50;16.30;65.90
51029;DHT22;37054;52.054;8.600;2023-02-18T12:08:20;16.40;66.10
51029;DHT22;37054;52.054;8.600;2023-02-18T12:10:47;16.30;66.00
51029;DHT22;37054;52.054;8.600;2023-02-18T12:18:24;16.40;65.90
51029;DHT22;37054;52.054;8.600;2023-02-18T12:20:59;16.30;66.00
51029;DHT22;37054;52.054;8.600;2023-02-18T12:23:37;16.30;65.90
51029;DHT22;37054;52.054;8.600;2023-02-18T12:26:27;16.40;65.80
51029;DHT22;37054;52.054;8.600;2023-02-18T12:29:06;16.30;65.80
51029;DHT22;37054;52.054;8.600;2023-02-18T12:34:19;16.30;65.80
51029;DHT22;37054;52.054;8.600;2023-02-18T12:40:00;16.20;65.80
51029;DHT22;37054;52.054;8.600;2023-02-18T12:50:31;16.00;65.80
51029;DHT22;37054;52.054;8.600;2023-02-18T12:53:06;15.90;66.00
51029;DHT22;37054;52.054;8.600;2023-02-18T13:03:44;16.00;66.20
51029;DHT22;37054;52.054;8.600;2023-02-18T13:08:54;15.90;66.20
51029;DHT22;37054;52.054;8.600;2023-02-18T13:16:17;15.90;66.30
51029;DHT22;37054;52.054;8.600;2023-02-18T13:18:58;15.90;66.40
51029;DHT22;37054;52.054;8.600;2023-02-18T13:21:24;16.00;66.30
51029;DHT22;37054;52.054;8.600;2023-02-18T13:26:21;16.00;66.20
51029;DHT22;37054;52.054;8.600;2023-02-18T13:28:55;16.10;66.10
51029;DHT22;37054;52.054;8.600;2023-02-18T13:34:07;16.10;66.00
51029;DHT22;37054;52.054;8.600;2023-02-18T13:36:52;16.10;66.00
51029;DHT22;37054;52.054;8.600;2023-02-18T13:39:20;16.10;66.10
51029;DHT22;37054;52.054;8.600;2023-02-18T13:41:47;16.10;66.10
51029;DHT22;37054;52.054;8.600;2023-02-18T13:46:48;16.20;66.20
51029;DHT22;37054;52.054;8.600;2023-02-18T13:49:15;16.20;66.10
51029;DHT22;37054;52.054;8.600;2023-02-18T13:51:46;16.20;66.20
51029;DHT22;37054;52.054;8.600;2023-02-18T13:56:42;16.10;66.20
51029;DHT22;37054;52.054;8.600;2023-02-18T13:59:09;16.20;66.30
51029;DHT22;37054;52.054;8.600;2023-02-18T14:04:01;16.20;66.30
51029;DHT22;37054;52.054;8.600;2023-02-18T14:06:28;16.20;66.50
51029;DHT22;37054;52.054;8.600;2023-02-18T14:11:33;16.30;66.60
51029;DHT22;37054;52.054;8.600;2023-02-18T14:16:24;16.40;66.60
51029;DHT22;37054;52.054;8.600;2023-02-18T14:18:54;16.50;66.60
51029;DHT22;37054;52.054;8.600;2023-02-18T14:21:21;16.60;66.60
51029;DHT22;37054;52.054;8.600;2023-02-18T14:26:17;16.80;66.40
51029;DHT22;37054;52.054;8.600;2023-02-18T14:33:38;16.80;65.80
51029;DHT22;37054;52.054;8.600;2023-02-18T14:41:17;16.70;65.70
51029;DHT22;37054;52.054;8.600;2023-02-18T14:46:46;16.70;66.00
51029;DHT22;37054;52.054;8.600;2023-02-18T14:49:24;16.60;66.00
51029;DHT22;37054;52.054;8.600;2023-02-18T14:51:52;16.50;65.90
51029;DHT22;37054;52.054;8.600;2023-02-18T14:54:19;16.50;66.00
51029;DHT22;37054;52.054;8.600;2023-02-18T14:59:20;16.50;66.00
51029;DHT22;37054;52.054;8.600;2023-02-18T15:01:46;16.40;66.10
51029;DHT22;37054;52.054;8.600;2023-02-18T15:04:12;16.40;66.10
51029;DHT22;37054;52.054;8.600;2023-02-18T15:06:38;16.30;66.10
51029;DHT22;37054;52.054;8.600;2023-02-18T15:09:14;16.30;66.10
51029;DHT22;37054;52.054;8.600;2023-02-18T15:11:43;16.30;66.10
51029;DHT22;37054;52.054;8.600;2023-02-18T15:14:20;16.30;66.10
51029;DHT22;37054;52.054;8.600;2023-02-18T15:16:46;16.30;66.20
51029;DHT22;37054;52.054;8.600;2023-02-18T15:19:14;16.30;66.20
51029;DHT22;37054;52.054;8.600;2023-02-18T15:21:43;16.40;66.10
51029;DHT22;37054;52.054;8.600;2023-02-18T15:24:14;16.30;66.10
51029;DHT22;37054;52.054;8.600;2023-02-18T15:26:42;16.40;66.10
51029;DHT22;37054;52.054;8.600;2023-02-18T15:32:17;16.40;66.00
51029;DHT22;37054;52.054;8.600;2023-02-18T15:35:00;16.40;65.90
51029;DHT22;37054;52.054;8.600;2023-02-18T15:37:34;16.40;66.00
51029;DHT22;37054;52.054;8.600;2023-02-18T15:40:03;16.40;66.00
51029;DHT22;37054;52.054;8.600;2023-02-18T15:42:34;16.40;66.10
51029;DHT22;37054;52.054;8.600;2023-02-18T15:45:17;16.40;66.00
51029;DHT22;37054;52.054;8.600;2023-02-18T15:47:44;16.40;66.00
51029;DHT22;37054;52.054;8.600;2023-02-18T15:50:15;16.50;66.00
51029;DHT22;37054;52.054;8.600;2023-02-18T15:52:42;16.50;66.00
51029;DHT22;37054;52.054;8.600;2023-02-18T15:55:20;16.50;65.90
51029;DHT22;37054;52.054;8.600;2023-02-18T15:57:48;16.50;65.80
51029;DHT22;37054;52.054;8.600;2023-02-18T16:00:25;16.40;66.00
51029;DHT22;37054;52.054;8.600;2023-02-18T16:02:56;16.40;65.90
51029;DHT22;37054;52.054;8.600;2023-02-18T16:05:26;16.30;65.80
51029;DHT22;37054;52.054;8.600;2023-02-18T16:07:56;16.30;65.80
51029;DHT22;37054;52.054;8.600;2023-02-18T16:10:23;16.20;65.80
51029;DHT22;37054;52.054;8.600;2023-02-18T16:12:49;16.20;65.80
51029;DHT22;37054;52.054;8.600;2023-02-18T16:15:29;16.20;65.90
51029;DHT22;37054;52.054;8.600;2023-02-18T16:17:58;16.10;66.00
51029;DHT22;37054;52.054;8.600;2023-02-18T16:22:52;16.10;66.00
51029;DHT22;37054;52.054;8.600;2023-02-18T16:25:21;16.10;66.00
51029;DHT22;37054;52.054;8.600;2023-02-18T16:28:02;16.10;66.10
51029;DHT22;37054;52.054;8.600;2023-02-18T16:30:30;16.10;66.10
51029;DHT22;37054;52.054;8.600;2023-02-18T16:32:57;16.00;66.10
51029;DHT22;37054;52.054;8.600;2023-02-18T16:35:23;16.00;66.20
51029;DHT22;37054;52.054;8.600;2023-02-18T16:37:50;16.00;66.20
51029;DHT22;37054;52.054;8.600;2023-02-18T16:40:20;16.00;66.20
51029;DHT22;37054;52.054;8.600;2023-02-18T16:42:46;16.00;66.20
51029;DHT22;37054;52.054;8.600;2023-02-18T16:45:12;16.00;66.20
51029;DHT22;37054;52.054;8.600;2023-02-18T16:47:38;16.00;66.20
51029;DHT22;37054;52.054;8.600;2023-02-18T16:50:03;16.00;66.10
51029;DHT22;37054;52.054;8.600;2023-02-18T16:52:29;16.00;66.10
51029;DHT22;37054;52.054;8.600;2023-02-18T16:54:55;16.00;66.20
51029;DHT22;37054;52.054;8.600;2023-02-18T16:57:20;16.00;66.10
51029;DHT22;37054;52.054;8.600;2023-02-18T16:59:46;16.00;66.10
51029;DHT22;37054;52.054;8.600;2023-02-18T17:02:17;16.00;66.10
51029;DHT22;37054;52.054;8.600;2023-02-18T17:04:43;15.90;66.10
51029;DHT22;37054;52.054;8.600;2023-02-18T17:07:09;15.90;66.10
51029;DHT22;37054;52.054;8.600;2023-02-18T17:09:35;15.90;66.10
51029;DHT22;37054;52.054;8.600;2023-02-18T17:12:00;15.90;66.00
51029;DHT22;37054;52.054;8.600;2023-02-18T17:14:27;15.90;66.10
51029;DHT22;37054;52.054;8.600;2023-02-18T17:16:53;16.00;66.10
51029;DHT22;37054;52.054;8.600;2023-02-18T17:19:19;16.00;66.00
51029;DHT22;37054;52.054;8.600;2023-02-18T17:21:44;16.00;66.00
51029;DHT22;37054;52.054;8.600;2023-02-18T17:24:13;16.00;66.00
51029;DHT22;37054;52.054;8.600;2023-02-18T17:26:39;16.00;65.90
51029;DHT22;37054;52.054;8.600;2023-02-18T17:29:04;16.00;65.80
51029;DHT22;37054;52.054;8.600;2023-02-18T17:31:35;16.00;65.80
51029;DHT22;37054;52.054;8.600;2023-02-18T17:34:05;16.00;65.80
51029;DHT22;37054;52.054;8.600;2023-02-18T17:36:31;16.00;65.90
51029;DHT22;37054;52.054;8.600;2023-02-18T17:53:41;16.10;65.70
51029;DHT22;37054;52.054;8.600;2023-02-18T17:56:18;16.10;65.70
51029;DHT22;37054;52.054;8.600;2023-02-18T17:58:43;16.10;65.70
51029;DHT22;37054;52.054;8.600;2023-02-18T18:01:10;16.10;65.70
51029;DHT22;37054;52.054;8.600;2023-02-18T18:03:45;16.10;65.60
51029;DHT22;37054;52.054;8.600;2023-02-18T18:06:15;16.00;65.50
51029;DHT22;37054;52.054;8.600;2023-02-18T18:08:58;16.00;65.60
51029;DHT22;37054;52.054;8.600;2023-02-18T18:11:24;16.00;65.40